Time;durP1;ratioP1;P1;durP2;ratioP2;P2;SDS_P1;SDS_P2;PMS_P1;PMS_P2;Temp;Humidity;BMP_temperature;BMP_pressure;BME280_temperature;BME280_humidity;BME280_pressure;Samples;Min_cycle;Max_cycle;Signal;HPM_P1;HPM_P2
2021/12/23 00:01:08;;;;;;;11.38;8.43;;;;;;;19.54;39.56;97271.47;10357630;28;20109;-53
2021/12/23 00:06:28;;;;;;;11.35;8.32;;;;;;;19.54;39.90;97267.97;10379529;28;20054;-55
2021/12/23 00:11:48;;;;;;;10.30;8.13;;;;;;;19.52;40.15;97273.69;10401275;28;20679;-52
2021/12/23 00:17:39;;;;;;;11.00;8.25;;;;;;;19.53;40.24;97258.28;10400151;28;20045;-54
2021/12/23 00:28:37;;;;;;;11.30;8.10;;;;;;;19.50;40.61;97243.50;10404108;28;20057;-52
2021/12/23 00:33:56;;;;;;;9.55;7.45;;;;;;;19.47;40.77;97240.63;10415694;28;20048;-52
2021/12/23 00:39:17;;;;;;;10.63;7.65;;;;;;;19.45;40.90;97238.22;10415805;28;20042;-55
2021/12/23 00:44:39;;;;;;;7.95;6.88;;;;;;;19.45;40.65;97235.50;10402537;28;20115;-54
2021/12/23 00:49:59;;;;;;;8.93;7.15;;;;;;;19.44;40.96;97233.91;10388306;28;20060;-53
2021/12/23 00:55:19;;;;;;;8.32;7.32;;;;;;;19.42;40.87;97227.22;10402089;28;20076;-55
2021/12/23 01:00:38;;;;;;;9.60;7.40;;;;;;;19.42;41.11;97221.84;10402969;28;20070;-54
2021/12/23 01:05:58;;;;;;;9.57;7.20;;;;;;;19.39;41.35;97201.66;10408065;28;20057;-55
2021/12/23 01:11:18;;;;;;;9.75;6.95;;;;;;;19.38;41.34;97201.94;10368831;28;20057;-55
2021/12/23 01:16:49;;;;;;;9.23;6.75;;;;;;;19.36;41.44;97204.97;10368977;28;20484;-54
2021/12/23 01:22:09;;;;;;;9.40;6.97;;;;;;;19.34;41.37;97218.00;10368777;28;20046;-52
2021/12/23 01:27:28;;;;;;;6.95;6.20;;;;;;;19.32;41.45;97221.00;10368681;28;20055;-56
2021/12/23 01:32:50;;;;;;;8.45;6.57;;;;;;;19.30;41.41;97222.44;10381668;28;20598;-54
2021/12/23 01:38:10;;;;;;;7.65;6.15;;;;;;;19.30;41.49;97209.72;10368718;28;20056;-54
2021/12/23 01:43:29;;;;;;;7.15;5.88;;;;;;;19.28;41.39;97194.94;10367809;28;20060;-53
2021/12/23 01:48:51;;;;;;;7.70;6.30;;;;;;;19.27;41.66;97190.66;10367994;28;20076;-54
2021/12/23 01:54:11;;;;;;;7.30;5.93;;;;;;;19.24;41.60;97185.84;10380059;28;20053;-54
2021/12/23 01:59:32;;;;;;;7.97;6.20;;;;;;;19.23;41.63;97181.56;10380797;28;20099;-55
2021/12/23 02:04:52;;;;;;;8.50;6.13;;;;;;;19.21;41.73;97172.97;10367418;28;20104;-55
2021/12/23 02:10:11;;;;;;;7.05;5.90;;;;;;;19.19;41.73;97173.31;10366372;28;20069;-55
2021/12/23 02:15:31;;;;;;;6.43;5.57;;;;;;;19.17;41.69;97170.91;10366561;28;20061;-55
2021/12/23 02:20:53;;;;;;;7.13;6.07;;;;;;;19.16;41.82;97161.19;10379807;28;20080;-55
2021/12/23 02:26:12;;;;;;;7.55;6.00;;;;;;;19.14;41.64;97155.31;10366859;28;20112;-53
2021/12/23 02:31:32;;;;;;;6.80;5.55;;;;;;;19.12;41.86;97140.53;10379606;28;20042;-53
2021/12/23 02:36:54;;;;;;;8.05;5.55;;;;;;;19.09;41.96;97131.16;10368902;28;20120;-55
2021/12/23 02:42:14;;;;;;;6.40;5.65;;;;;;;19.08;41.66;97129.56;10350907;28;20049;-52
2021/12/23 02:47:34;;;;;;;6.13;5.35;;;;;;;19.06;41.81;97129.09;10379132;28;20057;-53
2021/12/23 02:52:54;;;;;;;5.75;5.05;;;;;;;19.05;41.64;97118.59;10365156;28;20093;-53
2021/12/23 02:58:14;;;;;;;6.43;5.57;;;;;;;19.03;41.69;97110.78;10365761;28;20049;-52
2021/12/23 03:03:33;;;;;;;6.43;5.60;;;;;;;19.01;41.75;97094.13;10365023;28;20037;-53
2021/12/23 03:08:59;;;;;;;6.20;5.50;;;;;;;18.99;41.61;97079.34;10364221;28;20597;-52
2021/12/23 03:14:19;;;;;;;6.28;5.35;;;;;;;18.98;41.64;97075.84;10364371;28;20057;-53
2021/12/23 03:19:38;;;;;;;6.70;5.13;;;;;;;18.95;41.66;97069.19;10363014;28;20052;-53
2021/12/23 03:24:58;;;;;;;6.00;5.20;;;;;;;18.95;41.73;97054.88;10343823;28;20053;-54
2021/12/23 03:30:18;;;;;;;8.88;5.28;;;;;;;18.92;41.76;97055.50;10377210;28;20049;-55
2021/12/23 03:35:38;;;;;;;6.13;5.35;;;;;;;18.91;41.61;97057.41;10363630;28;20053;-55
2021/12/23 03:40:58;;;;;;;5.90;5.15;;;;;;;18.89;41.66;97053.44;10355817;28;20046;-54
2021/12/23 03:46:18;;;;;;;8.43;5.22;;;;;;;18.87;41.76;97047.56;10346286;28;20056;-52
2021/12/23 03:51:38;;;;;;;6.60;4.82;;;;;;;18.86;41.72;97035.97;10363838;28;20494;-52
2021/12/23 03:56:57;;;;;;;6.32;5.00;;;;;;;18.84;41.65;97032.00;10363024;28;20057;-52
2021/12/23 04:02:17;;;;;;;5.18;4.60;;;;;;;18.83;41.57;97036.56;10362873;28;20046;-54
2021/12/23 04:07:40;;;;;;;5.57;4.80;;;;;;;18.80;41.67;97022.91;10361756;28;20625;-52
2021/12/23 04:12:59;;;;;;;5.70;4.90;;;;;;;18.77;41.60;97008.91;10375767;28;20038;-53
2021/12/23 04:18:19;;;;;;;5.18;4.47;;;;;;;18.77;41.69;97017.00;10374816;28;20042;-53
2021/12/23 04:23:39;;;;;;;5.38;4.35;;;;;;;18.75;41.52;97008.41;10402224;28;20050;-53
2021/12/23 04:28:58;;;;;;;5.25;4.50;;;;;;;18.73;41.68;96989.06;10362032;28;20080;-54
2021/12/23 04:34:17;;;;;;;5.07;4.50;;;;;;;18.72;41.62;96984.00;10356029;28;20056;-53
2021/12/23 04:39:37;;;;;;;4.88;4.38;;;;;;;18.70;41.51;96984.28;10367451;28;20061;-55
2021/12/23 04:44:56;;;;;;;5.00;4.18;;;;;;;18.69;41.52;96971.09;10383997;28;20046;-53
2021/12/23 04:50:15;;;;;;;4.78;4.25;;;;;;;18.67;41.46;96974.13;10378441;28;20092;-52
2021/12/23 04:55:35;;;;;;;5.85;4.47;;;;;;;18.64;41.44;96953.19;10383345;28;20060;-52
2021/12/23 05:00:55;;;;;;;5.15;4.50;;;;;;;18.62;41.35;96933.81;10382809;28;20088;-54
2021/12/23 05:06:15;;;;;;;4.75;4.22;;;;;;;18.61;41.53;96942.22;10368076;28;20081;-54
2021/12/23 05:11:35;;;;;;;4.55;4.15;;;;;;;18.59;41.49;96961.41;10350748;28;20460;-55
2021/12/23 05:16:54;;;;;;;7.22;4.63;;;;;;;18.58;41.49;96938.22;10369216;28;20053;-52
2021/12/23 05:22:14;;;;;;;4.88;3.95;;;;;;;18.56;41.63;96929.63;10364865;28;20074;-52
2021/12/23 05:27:33;;;;;;;4.57;4.03;;;;;;;18.55;41.33;96928.06;10368510;28;20084;-55
2021/12/23 05:32:53;;;;;;;5.55;3.88;;;;;;;18.52;41.45;96936.78;10361481;28;20054;-53
2021/12/23 05:38:13;;;;;;;4.50;3.80;;;;;;;18.51;41.50;96900.91;10352980;28;20057;-54
2021/12/23 05:43:32;;;;;;;4.75;4.22;;;;;;;18.50;41.64;96898.53;10354474;28;20490;-52
2021/12/23 05:48:52;;;;;;;4.50;4.10;;;;;;;18.51;41.56;96895.53;10378855;28;20046;-54
2021/12/23 05:54:11;;;;;;;5.95;4.20;;;;;;;18.51;41.75;96902.81;10367333;28;20116;-51
2021/12/23 05:59:35;;;;;;;4.50;4.10;;;;;;;18.51;41.69;96900.91;10367640;28;20057;-51
2021/12/23 06:04:54;;;;;;;7.07;3.80;;;;;;;18.54;41.84;96880.59;10366679;28;20096;-51
2021/12/23 06:10:14;;;;;;;4.00;3.60;;;;;;;18.54;41.94;96884.13;10373835;28;20038;-51
2021/12/23 06:15:34;;;;;;;5.38;3.50;;;;;;;18.56;42.05;96878.38;10362503;28;20061;-51
2021/12/23 06:20:54;;;;;;;5.50;3.63;;;;;;;18.60;41.90;96854.25;10363348;28;21012;-51
2021/12/23 06:26:14;;;;;;;5.53;3.58;;;;;;;18.62;42.14;96852.88;10352026;28;20054;-52
2021/12/23 06:31:33;;;;;;;3.92;3.58;;;;;;;18.64;42.06;96853.34;10357120;28;20048;-51
2021/12/23 06:36:53;;;;;;;3.80;3.50;;;;;;;18.67;41.91;96843.81;10361878;28;20037;-50
2021/12/23 06:42:13;;;;;;;5.60;3.38;;;;;;;18.72;42.27;96847.16;10351538;28;20046;-50
2021/12/23 06:47:34;;;;;;;4.50;3.72;;;;;;;18.76;42.01;96842.69;10362176;28;20382;-52
2021/12/23 06:52:54;;;;;;;4.25;3.70;;;;;;;18.80;41.93;96839.38;10354242;28;20046;-50
2021/12/23 06:58:14;;;;;;;3.60;3.30;;;;;;;18.81;41.44;96844.47;10334517;28;20070;-52
2021/12/23 07:09:12;;;;;;;6.17;3.60;;;;;;;18.84;41.13;96835.75;10360562;28;20119;-53
2021/12/23 07:14:31;;;;;;;4.25;3.55;;;;;;;18.88;41.27;96849.41;10362154;28;20057;-53
2021/12/23 07:19:51;;;;;;;3.45;3.15;;;;;;;18.88;41.41;96833.22;10372513;28;20045;-53
2021/12/23 07:25:12;;;;;;;3.85;3.45;;;;;;;18.89;41.66;96824.75;10369817;28;20052;-51
2021/12/23 07:30:32;;;;;;;8.20;7.40;;;;;;;18.89;37.68;96832.06;10357163;28;20054;-53
2021/12/23 07:35:52;;;;;;;3.60;3.30;;;;;;;18.83;40.31;96836.06;10360472;28;20042;-52
2021/12/23 07:41:13;;;;;;;4.55;4.10;;;;;;;18.83;40.81;96836.84;10375422;28;20038;-52
2021/12/23 07:46:35;;;;;;;3.78;3.38;;;;;;;18.85;40.74;96839.22;10361975;28;20042;-50
2021/12/23 07:51:55;;;;;;;3.72;3.40;;;;;;;18.88;40.92;96833.22;10362734;28;20069;-50
2021/12/23 07:57:15;;;;;;;4.53;3.50;;;;;;;18.90;40.95;96822.88;10363178;28;20073;-51
2021/12/23 08:02:34;;;;;;;3.58;3.28;;;;;;;18.89;41.08;96805.88;10362521;28;20042;-50
2021/12/23 08:07:54;;;;;;;5.75;3.60;;;;;;;18.92;41.18;96817.97;10361960;28;20061;-52
2021/12/23 08:13:15;;;;;;;3.70;3.30;;;;;;;18.92;41.20;96807.16;10361454;28;20049;-51
2021/12/23 08:18:34;;;;;;;3.33;3.00;;;;;;;18.92;41.03;96828.75;10374897;28;20112;-53
2021/12/23 08:23:54;;;;;;;3.83;3.40;;;;;;;18.91;41.07;96809.03;10362823;28;20108;-51
2021/12/23 08:29:17;;;;;;;3.13;2.83;;;;;;;18.93;41.13;96809.53;10361742;28;20054;-52
2021/12/23 08:34:37;;;;;;;3.50;3.20;;;;;;;18.93;41.13;96811.44;10359671;28;20065;-50
2021/12/23 08:39:57;;;;;;;4.93;3.10;;;;;;;18.93;40.97;96806.03;10343680;28;20489;-51
2021/12/23 08:45:18;;;;;;;3.22;2.85;;;;;;;18.91;41.15;96790.16;10354708;28;20042;-50
2021/12/23 08:50:37;;;;;;;3.72;3.10;;;;;;;18.89;41.13;96783.50;10337341;28;20062;-50
2021/12/23 08:55:57;;;;;;;3.90;2.97;;;;;;;18.89;41.28;96783.50;10358740;28;20054;-50
2021/12/23 09:01:17;;;;;;;4.80;3.25;;;;;;;18.89;41.39;96764.59;10335266;28;20579;-53
2021/12/23 09:06:37;;;;;;;4.43;3.13;;;;;;;18.88;41.61;96765.72;10360098;28;20054;-52
2021/12/23 09:11:56;;;;;;;4.55;3.10;;;;;;;18.87;41.64;96767.59;10359081;28;20172;-51
2021/12/23 09:17:16;;;;;;;4.05;2.80;;;;;;;18.87;41.89;96756.81;10360860;28;20504;-51
2021/12/23 09:22:36;;;;;;;3.50;2.92;;;;;;;18.88;41.59;96744.91;10360537;28;20470;-50
2021/12/23 09:28:04;;;;;;;3.00;2.70;;;;;;;18.88;41.82;96719.84;10381230;28;20068;-51
2021/12/23 09:33:24;;;;;;;4.47;3.00;;;;;;;18.86;41.83;96706.66;10364920;28;20061;-49
2021/12/23 09:38:44;;;;;;;3.40;2.50;;;;;;;18.86;41.92;96706.66;10380321;28;20030;-52
2021/12/23 09:44:05;;;;;;;4.13;3.03;;;;;;;18.86;42.19;96717.44;10379552;28;20041;-50
2021/12/23 09:49:25;;;;;;;4.57;2.88;;;;;;;18.84;41.92;96745.88;10374492;28;20030;-53
2021/12/23 09:54:47;;;;;;;4.90;2.72;;;;;;;18.85;42.21;96771.75;10348904;28;20056;-51
2021/12/23 10:00:11;;;;;;;3.58;2.40;;;;;;;18.85;42.07;96745.53;10345357;28;20708;-52
2021/12/23 10:05:33;;;;;;;3.13;2.83;;;;;;;18.84;42.04;96725.06;10358649;28;20737;-53
2021/12/23 10:33:33;;;;;;;3.33;2.90;;;;;;;18.91;42.45;96665.97;10357496;28;20048;-53
2021/12/23 10:38:53;;;;;;;5.38;2.85;;;;;;;18.94;42.36;96642.97;10356646;28;20405;-52
2021/12/23 10:44:12;;;;;;;8.65;3.08;;;;;;;18.96;42.36;96614.53;10356967;28;20483;-51
2021/12/23 10:49:59;;;;;;;4.85;2.85;;;;;;;19.00;42.12;96619.28;10360847;28;20053;-51
2021/12/23 11:00:45;;;;;;;4.55;3.33;;;;;;;19.08;41.53;96615.75;10378334;28;20049;-53
2021/12/23 11:39:32;;;;;;;4.68;3.80;;;;;;;19.39;40.15;96574.91;10353481;28;20061;-54
2021/12/23 11:44:52;;;;;;;5.85;4.22;;;;;;;19.44;38.19;96555.00;10344664;28;20455;-54
2021/12/23 11:50:19;;;;;;;8.05;5.25;;;;;;;19.49;39.26;96544.78;10358227;28;20057;-51
2021/12/23 11:55:40;;;;;;;6.10;4.57;;;;;;;19.52;39.57;96538.72;10357234;28;20038;-52
2021/12/23 12:01:06;;;;;;;7.13;4.72;;;;;;;19.59;39.74;96535.50;10359613;28;20493;-51
2021/12/23 12:06:40;;;;;;;5.97;4.28;;;;;;;19.64;40.01;96521.78;10360029;28;20050;-51
2021/12/23 12:11:59;;;;;;;5.70;4.40;;;;;;;19.71;39.82;96496.91;10348261;28;20417;-52
2021/12/23 12:17:25;;;;;;;8.70;4.22;;;;;;;19.78;40.03;96469.38;10373368;28;20405;-51
2021/12/23 12:22:45;;;;;;;6.28;3.92;;;;;;;19.83;40.16;96450.25;10356774;28;20054;-51
2021/12/23 12:28:17;;;;;;;6.80;4.18;;;;;;;19.87;40.32;96435.72;10354398;28;20057;-51
2021/12/23 12:33:40;;;;;;;4.60;3.92;;;;;;;19.93;40.23;96423.59;10354976;28;20058;-51
2021/12/23 12:39:02;;;;;;;6.55;3.53;;;;;;;19.99;40.28;96404.44;10354895;28;20433;-55
2021/12/23 12:44:26;;;;;;;5.78;3.60;;;;;;;20.06;40.13;96405.47;10368358;28;20053;-55
2021/12/23 12:49:49;;;;;;;8.32;3.47;;;;;;;20.12;40.28;96393.28;10357244;28;20046;-54
2021/12/23 12:55:12;;;;;;;6.07;3.30;;;;;;;20.19;40.41;96391.94;10354576;28;20050;-55
2021/12/23 13:00:39;;;;;;;4.78;3.70;;;;;;;20.27;40.09;96385.66;10366202;28;20267;-55
2021/12/23 13:06:02;;;;;;;6.90;3.60;;;;;;;20.32;40.12;96391.59;10339481;28;20049;-52
2021/12/23 13:11:59;;;;;;;6.78;3.20;;;;;;;20.38;39.99;96391.38;10267795;28;20053;-56
2021/12/23 13:18:15;;;;;;;9.60;3.40;;;;;;;20.44;40.18;96392.72;10368626;28;20097;-52
2021/12/23 13:23:40;;;;;;;8.60;3.70;;;;;;;20.47;39.88;96378.53;10366511;28;20124;-52
2021/12/23 13:29:00;;;;;;;6.40;5.05;;;;;;;20.33;35.15;96368.84;10365007;28;20774;-52
2021/12/23 13:34:26;;;;;;;6.00;4.00;;;;;;;20.27;38.19;96366.72;10362719;28;20104;-50
2021/12/23 13:39:45;;;;;;;6.68;4.57;;;;;;;20.40;39.68;96391.81;10370068;28;20473;-50
2021/12/23 13:45:05;;;;;;;6.55;4.25;;;;;;;20.49;40.36;96384.38;10383798;28;20038;-51
2021/12/23 13:50:27;;;;;;;7.97;4.40;;;;;;;20.52;41.53;96375.56;10382423;28;20045;-52
2021/12/23 13:55:50;;;;;;;8.95;3.95;;;;;;;20.54;42.14;96366.00;10362524;28;21568;-50
2021/12/23 14:01:09;;;;;;;13.13;4.40;;;;;;;20.55;42.61;96351.31;10382267;28;20046;-50
2021/12/23 14:06:29;;;;;;;10.02;3.92;;;;;;;20.60;42.93;96326.00;10376048;28;20058;-53
2021/12/23 14:11:49;;;;;;;10.50;4.00;;;;;;;20.61;43.01;96341.09;10364667;28;20120;-52
2021/12/23 14:17:22;;;;;;;9.15;3.50;;;;;;;20.62;42.88;96328.34;10365743;28;20049;-52
2021/12/23 14:28:23;;;;;;;13.60;10.43;;;;;;;20.64;38.91;96321.47;10368128;28;20060;-51
2021/12/23 14:33:58;;;;;;;9.35;6.60;;;;;;;20.51;39.08;96323.38;10381084;28;20042;-51
2021/12/23 14:39:30;;;;;;;12.82;6.53;;;;;;;20.57;40.40;96318.50;10367069;28;20129;-53
2021/12/23 14:45:11;;;;;;;12.55;10.15;;;;;;;20.27;36.46;96296.38;10367889;28;20525;-51
2021/12/23 14:50:38;;;;;;;8.68;7.78;;;;;;;20.39;37.29;96282.03;10391937;28;20113;-57
2021/12/23 14:55:58;;;;;;;11.88;7.60;;;;;;;20.45;37.94;96269.84;10365104;28;20417;-55
2021/12/23 15:01:19;;;;;;;12.48;7.05;;;;;;;20.50;39.08;96256.88;10362289;28;20058;-54
2021/12/23 15:07:10;;;;;;;8.93;6.18;;;;;;;20.53;39.16;96249.97;10365587;28;20248;-55
2021/12/23 15:12:35;;;;;;;10.02;6.40;;;;;;;20.54;39.45;96246.94;10358677;28;20054;-51
2021/12/23 15:18:01;;;;;;;7.03;5.95;;;;;;;20.55;39.53;96226.06;10363247;28;20049;-52
2021/12/23 15:23:48;;;;;;;11.30;5.55;;;;;;;20.57;39.54;96223.03;10367180;28;20037;-52
2021/12/23 15:29:20;;;;;;;11.67;5.90;;;;;;;20.57;39.58;96231.16;10365478;28;20053;-50
2021/12/23 15:34:46;;;;;;;14.32;6.40;;;;;;;20.55;39.88;96217.94;10353858;28;20073;-53
2021/12/23 15:40:09;;;;;;;8.57;5.80;;;;;;;20.56;40.36;96211.38;10363963;28;20539;-53
2021/12/23 15:45:30;;;;;;;7.57;5.65;;;;;;;20.55;40.47;96209.84;10364099;28;20058;-54
2021/12/23 15:50:53;;;;;;;7.28;5.72;;;;;;;20.54;40.51;96194.72;10362882;28;20046;-54
2021/12/23 15:56:12;;;;;;;10.75;5.55;;;;;;;20.54;40.52;96190.13;10372052;28;20045;-49
2021/12/23 16:01:32;;;;;;;7.18;5.60;;;;;;;20.56;40.71;96178.91;10372156;28;20065;-55
2021/12/23 16:12:33;;;;;;;9.70;5.22;;;;;;;20.56;41.04;96157.28;10371862;28;20045;-50
2021/12/23 16:17:52;;;;;;;8.93;4.72;;;;;;;20.57;41.28;96156.16;10362155;28;20058;-50
2021/12/23 16:23:12;;;;;;;8.77;4.97;;;;;;;20.55;41.35;96156.50;10371917;28;20046;-54
2021/12/23 16:28:33;;;;;;;8.63;5.60;;;;;;;20.54;41.31;96159.53;10364026;28;20053;-54
2021/12/23 16:33:54;;;;;;;9.88;4.80;;;;;;;20.51;41.23;96187.31;10366600;28;20073;-55
2021/12/23 16:39:13;;;;;;;9.73;5.18;;;;;;;20.50;41.49;96188.41;10362985;28;20390;-50
2021/12/23 16:44:33;;;;;;;11.88;4.88;;;;;;;20.49;41.65;96186.88;10366996;28;20054;-52
2021/12/23 16:49:52;;;;;;;6.25;4.65;;;;;;;20.48;41.73;96193.38;10371080;28;20562;-50
2021/12/23 16:55:14;;;;;;;7.53;4.82;;;;;;;20.47;41.90;96181.00;10369484;28;20046;-53
2021/12/23 17:00:34;;;;;;;9.75;4.93;;;;;;;20.48;42.12;96177.16;10369366;28;20382;-51
2021/12/23 17:05:54;;;;;;;9.65;5.13;;;;;;;20.44;41.60;96157.34;10353827;28;20064;-51
2021/12/23 17:11:13;;;;;;;7.72;5.13;;;;;;;20.42;41.90;96136.03;10369231;28;20053;-51
2021/12/23 17:16:37;;;;;;;15.02;5.70;;;;;;;20.43;42.01;96128.72;10381360;28;20037;-56
2021/12/23 17:21:57;;;;;;;6.70;4.72;;;;;;;20.42;42.11;96119.03;10362080;28;20064;-51
2021/12/23 17:27:17;;;;;;;7.82;4.82;;;;;;;20.41;42.01;96112.06;10363256;28;20062;-54
2021/12/23 17:32:38;;;;;;;5.82;4.78;;;;;;;20.40;41.94;96115.88;10359305;28;20052;-51
2021/12/23 17:38:03;;;;;;;5.50;4.50;;;;;;;20.38;42.12;96099.22;10357891;28;20132;-51
2021/12/23 17:43:22;;;;;;;5.88;4.22;;;;;;;20.37;42.14;96073.31;10361815;28;20054;-56
2021/12/23 17:48:42;;;;;;;8.98;4.60;;;;;;;20.38;42.43;96058.63;10359406;28;20080;-53
2021/12/23 17:54:02;;;;;;;8.52;4.90;;;;;;;20.34;41.40;96051.19;10353248;28;20073;-50
2021/12/23 17:59:25;;;;;;;8.73;5.10;;;;;;;20.31;42.53;96022.16;10377566;28;20042;-51
2021/12/23 18:04:45;;;;;;;7.75;4.63;;;;;;;20.32;42.91;96007.47;10378976;28;20069;-52
2021/12/23 18:10:05;;;;;;;8.98;4.32;;;;;;;20.31;43.12;95984.28;10349491;28;20049;-53
2021/12/23 18:15:27;;;;;;;9.23;4.97;;;;;;;20.31;43.16;95984.28;10364557;28;20125;-50
2021/12/23 18:20:47;;;;;;;8.90;4.47;;;;;;;20.31;43.67;95987.00;10363279;28;20485;-63
2021/12/23 18:26:06;;;;;;;9.75;4.50;;;;;;;20.29;43.39;95980.38;10351106;28;20100;-59
2021/12/23 18:31:28;;;;;;;9.30;4.40;;;;;;;20.29;43.86;95958.72;10369566;28;20046;-56
2021/12/23 18:36:49;;;;;;;6.20;4.43;;;;;;;20.28;43.79;95959.84;10343453;28;20053;-56
2021/12/23 18:42:12;;;;;;;8.00;4.65;;;;;;;20.25;43.79;95955.94;10366343;28;20529;-55
2021/12/23 18:47:31;;;;;;;7.47;3.97;;;;;;;20.26;43.39;95930.44;10364214;28;20061;-62
2021/12/23 18:52:52;;;;;;;7.25;4.10;;;;;;;20.23;44.13;95922.22;10373905;28;20041;-49
2021/12/23 18:58:11;;;;;;;14.05;4.65;;;;;;;20.22;44.59;95894.41;10374667;28;20034;-57
2021/12/23 19:08:59;;;;;;;10.38;5.32;;;;;;;20.20;44.29;95875.06;10362051;28;20069;-53
2021/12/23 19:14:18;;;;;;;11.63;5.72;;;;;;;20.18;44.36;95866.50;10362981;28;20593;-56
2021/12/23 19:19:38;;;;;;;10.10;5.97;;;;;;;20.15;44.25;95857.19;10350086;28;20038;-56
2021/12/23 19:24:57;;;;;;;9.52;5.65;;;;;;;20.15;43.82;95864.53;10362805;28;20050;-51
2021/12/23 19:30:17;;;;;;;9.23;5.03;;;;;;;20.13;43.50;95853.25;10363742;28;20060;-51
2021/12/23 19:35:37;;;;;;;7.22;4.97;;;;;;;20.12;43.49;95851.69;10363596;28;20417;-54
2021/12/23 19:40:57;;;;;;;7.63;5.65;;;;;;;20.11;42.94;95853.63;10353503;28;20748;-54
2021/12/23 19:46:18;;;;;;;8.48;5.35;;;;;;;20.09;42.38;95852.38;10353382;28;20046;-55
2021/12/23 19:51:37;;;;;;;8.52;6.15;;;;;;;20.07;42.48;95850.03;10352857;28;20052;-55
2021/12/23 19:57:01;;;;;;;9.90;7.07;;;;;;;20.06;42.77;95848.47;10363544;28;20516;-53
2021/12/23 20:02:20;;;;;;;7.88;7.07;;;;;;;20.06;43.37;95853.88;10350315;28;20057;-53
2021/12/23 20:07:40;;;;;;;12.30;8.55;;;;;;;20.06;44.28;95850.38;10352926;28;20591;-52
2021/12/23 20:13:00;;;;;;;13.68;7.65;;;;;;;20.06;45.89;95861.19;10350808;28;20046;-54
2021/12/23 20:18:19;;;;;;;11.32;7.90;;;;;;;20.04;45.99;95842.63;10318515;28;20080;-52
2021/12/23 20:23:39;;;;;;;10.25;7.75;;;;;;;20.03;45.82;95832.16;10353871;28;20054;-52
2021/12/23 20:28:59;;;;;;;8.32;7.05;;;;;;;20.02;46.92;95819.78;10365805;28;20046;-54
2021/12/23 20:34:18;;;;;;;9.95;8.40;;;;;;;20.02;46.69;95817.06;10365322;28;20051;-51
2021/12/23 20:39:38;;;;;;;11.75;10.20;;;;;;;20.01;46.13;95807.38;10352964;28;20054;-54
2021/12/23 20:44:57;;;;;;;14.35;10.30;;;;;;;19.99;45.71;95806.94;10353085;28;20061;-51
2021/12/23 20:50:21;;;;;;;11.40;10.10;;;;;;;19.98;45.87;95786.47;10351730;28;20149;-49
2021/12/23 20:55:44;;;;;;;12.68;11.38;;;;;;;19.97;45.75;95784.91;10352218;28;20076;-49
2021/12/23 21:01:07;;;;;;;13.05;11.50;;;;;;;19.95;46.46;95783.34;10365317;28;20309;-49
2021/12/23 21:06:27;;;;;;;14.02;12.63;;;;;;;19.94;46.32;95778.28;10351181;28;20058;-49
2021/12/23 21:11:49;;;;;;;15.13;13.73;;;;;;;19.93;46.43;95774.81;10365231;28;20118;-49
2021/12/23 21:17:08;;;;;;;17.17;15.50;;;;;;;19.92;46.47;95758.94;10365345;28;20045;-49
2021/12/23 21:22:28;;;;;;;17.75;15.95;;;;;;;19.92;46.48;95756.22;10356491;28;20534;-50
2021/12/23 21:27:48;;;;;;;20.77;18.88;;;;;;;19.91;46.54;95760.81;10360664;28;20698;-49
2021/12/23 21:33:08;;;;;;;24.23;21.98;;;;;;;19.89;46.42;95746.09;10360182;28;20050;-50
2021/12/23 21:38:28;;;;;;;28.90;25.83;;;;;;;19.88;46.49;95734.50;10360683;28;20052;-49
2021/12/23 21:43:49;;;;;;;36.03;32.33;;;;;;;19.88;46.65;95736.44;10361496;28;20096;-50
2021/12/23 21:49:09;;;;;;;45.25;41.03;;;;;;;19.87;46.94;95726.75;10359246;28;20030;-49
2021/12/23 21:54:34;;;;;;;52.35;47.22;;;;;;;19.86;46.93;95730.59;10358783;28;20486;-52
2021/12/23 21:59:55;;;;;;;68.40;62.13;;;;;;;19.84;46.96;95712.03;10372717;28;20041;-50
2021/12/23 22:05:15;;;;;;;98.95;74.32;;;;;;;19.86;47.29;95706.28;10354156;28;20057;-51
2021/12/23 22:10:36;;;;;;;76.70;66.65;;;;;;;19.84;47.15;95687.72;10357361;28;20096;-49
2021/12/23 22:15:56;;;;;;;66.22;57.45;;;;;;;19.82;47.15;95689.97;10358226;28;20112;-50
2021/12/23 22:21:16;;;;;;;61.03;54.45;;;;;;;19.79;47.31;95677.16;10359221;28;20057;-49
2021/12/23 22:26:37;;;;;;;54.50;48.03;;;;;;;19.79;47.29;95666.34;10358642;28;20065;-50
2021/12/23 22:31:56;;;;;;;54.80;45.70;;;;;;;19.77;46.99;95663.22;10362538;28;20060;-50
2021/12/23 22:37:16;;;;;;;50.25;44.13;;;;;;;19.75;47.01;95682.47;10377895;28;20053;-49
2021/12/23 22:42:36;;;;;;;47.30;42.28;;;;;;;19.72;47.08;95677.78;10363979;28;20092;-51
2021/12/23 22:47:57;;;;;;;49.80;43.05;;;;;;;19.70;46.67;95666.53;10362245;28;20112;-50
2021/12/23 22:53:16;;;;;;;50.10;40.85;;;;;;;19.69;46.62;95677.69;10364105;28;20056;-51
2021/12/23 22:58:36;;;;;;;47.90;41.30;;;;;;;19.68;46.46;95657.19;10363985;28;20046;-51
2021/12/23 23:03:56;;;;;;;45.65;40.47;;;;;;;19.66;46.46;95644.06;10359548;28;20046;-50
2021/12/23 23:09:15;;;;;;;45.58;40.75;;;;;;;19.64;46.35;95654.44;10364427;28;20046;-49
2021/12/23 23:20:01;;;;;;;44.83;40.08;;;;;;;19.61;46.29;95616.53;10356745;28;20050;-49
2021/12/23 23:25:20;;;;;;;46.22;41.33;;;;;;;19.61;46.28;95630.03;10354651;28;20053;-50
2021/12/23 23:36:20;;;;;;;43.83;39.07;;;;;;;19.59;46.25;95616.88;10360081;28;20058;-50
2021/12/23 23:41:46;;;;;;;44.03;39.28;;;;;;;19.56;46.26;95618.38;10355085;28;20085;-52
2021/12/23 23:47:05;;;;;;;46.05;41.10;;;;;;;19.54;46.29;95628.75;10353247;28;20057;-49
2021/12/23 23:52:25;;;;;;;45.80;40.83;;;;;;;19.53;46.41;95616.38;10367188;28;20092;-50
2021/12/23 23:57:46;;;;;;;45.42;39.85;;;;;;;19.52;46.34;95619.41;10352962;28;20527;-50
